Accueil
METAR-TAF:

METAR-TAF

Aéroports :

Aéroport de Newquay Cornouailles

Newquay Cornwall, Angleterre

latitude: 50-26N, longitude: 005-00W, altitude: 119 m

Observation

Le bulletin a été fait il y a 3 heures et 13 minutes, à 19:50 UTC
Vent 8 kt de nord-ouest
Température 11°C
Humidité 94%
Pression 1035 hPa
Visibilité 10 km ou plus
Nuages fragmentés à une hauteur de 600 ft

METAR: EGHQ 231950Z 32008KT 9999 BKN006 11/10 Q1035

Heure: 00:03 (23:03 UTC)

Prévision

Le bulletin a été fait il y a 3 heures et 53 minutes, à 19:10 UTC
Prévision valable du 23 à 19 UTC au 23 à 21 UTC
Vent 12 kt de nord/nord-ouest
Visibilité 10 km ou plus
Nuages épars à une hauteur de 900 ft
Temporairement
du 23 à 19 UTC au 23 à 21 UTC
Nuages fragmentés à une hauteur de 900 ft

TAF: EGHQ 231910Z 2319/2321 33012KT 9999 SCT009 TEMPO 2319/2321 BKN009

Observations et prévisions météorologiques de plus de 4000 aéroports (messages METAR et TAF).

Les stations disponibles sont représentées par des disques jaunes et rouges sur la carte.

Passer la souris dessus pour voir le nom de la station.

Cliquer dessus pour voir les observations et prévisions météorologiques.

Pour changer de carte: cliquez sur les boutons verts avec une croix noire pour zoomer, sur le bouton vert avec un tiret pour effectuer un zoom arrière, ou sur les flèches vertes pour les cartes adjacentes.


METAR-TAF: